Flight Track Log - Related Links

Times and Time Zones

All times are in EDT time to prevent confusion due to time zone crossing. See the N474RL flight status page for this flight to view local times or setup timezone preferences in your user account.


Time Position Orientation Groundspeed Altitude Reporting Facility
EDT Latitude Longitude Course Direction KTS MPH feet Rate Location/Type
Sun 01:19:00 PM 33.7707 -79.1954 292° West  Level FlightAware Approximate
Sun 01:20:00 PM 33.7833 -79.2434 270° West  Level FlightAware Approximate
Sun 01:21:00 PM 33.7919 -79.2924 292° West  Level FlightAware Approximate
Sun 01:22:00 PM 33.8077 -79.3397 292° West  Level FlightAware Approximate
Sun 01:23:00 PM 33.8235 -79.3870 292° West  Level FlightAware Approximate
Sun 01:24:00 PM 33.8393 -79.4343 292° West  Level FlightAware Approximate
Sun 01:25:00 PM 33.8550 -79.4817 292° West  Level FlightAware Approximate
Sun 01:26:00 PM 33.8707 -79.5291 291° West  Level FlightAware Approximate
Sun 01:27:00 PM 33.8862 -79.5766 291° West  Level FlightAware Approximate
Sun 01:28:00 PM 33.9016 -79.6242 291° West  Level FlightAware Approximate
Sun 01:29:00 PM 33.9170 -79.6717 291° West  Level FlightAware Approximate
Sun 01:30:00 PM 33.9324 -79.7193 291° West  Level FlightAware Approximate
Sun 01:31:00 PM 33.9477 -79.7669 291° West  Level FlightAware Approximate
Sun 01:32:00 PM 33.9631 -79.8145 291° West  Level FlightAware Approximate
Sun 01:33:00 PM 33.9784 -79.8621 291° West  Level FlightAware Approximate
Sun 01:34:00 PM 33.9937 -79.9098 291° West  Level FlightAware Approximate
Sun 01:35:00 PM 34.0090 -79.9574 291° West  Level FlightAware Approximate
Sun 01:36:00 PM 34.0243 -80.0051 291° West  Level FlightAware Approximate
Sun 01:37:00 PM 34.0397 -80.0527 292° West  Level FlightAware Approximate
Sun 01:38:00 PM 34.0554 -80.1003 292° West  Level FlightAware Approximate
Sun 01:39:00 PM 34.0710 -80.1478 292° West  Level FlightAware Approximate
Sun 01:40:00 PM 34.0866 -80.1954 292° West  Level FlightAware Approximate
Sun 01:41:00 PM 34.1021 -80.2430 292° West  Level FlightAware Approximate
Sun 01:42:00 PM 34.1177 -80.2906 292° West  Level FlightAware Approximate
Sun 01:43:00 PM 34.1333 -80.3382 292° West  Level FlightAware Approximate
Sun 01:44:00 PM 34.1488 -80.3858 292° West  Level FlightAware Approximate
Sun 01:45:00 PM 34.1643 -80.4334 291° West  Level FlightAware Approximate
Sun 01:46:00 PM 34.1798 -80.4811 291° West  Level FlightAware Approximate
Sun 01:47:00 PM 34.1952 -80.5288 291° West  Level FlightAware Approximate
Sun 01:48:00 PM 34.2107 -80.5765 291° West  Level FlightAware Approximate
Sun 01:48:30 PM 34.1932 -80.5749 291° West 171 197 7,800  Level FlightAware ADS-B
Sun 01:48:50 PM 34.1990 -80.5930 291° West 172 198 7,800  Level FlightAware ADS-B
Sun 02:01:05 PM 34.4109 -81.2562 291° West 177 204 7,800  Level FlightAware ADS-B
Sun 02:01:21 PM 34.4156 -81.2711 291° West 177 204 7,800  Level FlightAware ADS-B
Sun 02:01:37 PM 34.4207 -81.2853 291° West 177 204 7,800  Level FlightAware ADS-B
Sun 02:01:55 PM 34.4271 -81.3008 291° West 177 204 7,800  Level FlightAware ADS-B
Sun 02:02:22 PM 34.4352 -81.3251 290° West 174 200 7,800  Level FlightAware ADS-B
Sun 02:02:55 PM 34.4434 -81.3558 288° West 175 201 7,800  Level FlightAware ADS-B
Sun 02:03:25 PM 34.4515 -81.3837 290° West 178 205 7,800  Level FlightAware ADS-B
Sun 02:04:29 PM 34.4698 -81.4432 291° West 174 200 7,800  Level FlightAware ADS-B
Sun 02:04:54 PM 34.4771 -81.4663 291° West 174 200 7,800  Level FlightAware ADS-B
Sun 02:05:18 PM 34.4840 -81.4874 292° West 174 200 7,800  Level FlightAware ADS-B
Sun 02:05:42 PM 34.4914 -81.5093 293° West 174 200 7,800  Level FlightAware ADS-B
Sun 02:08:00 PM 34.5267 -81.6196 291° West  Level FlightAware Approximate
Sun 02:09:00 PM 34.5420 -81.6675 291° West  Level FlightAware Approximate
Sun 02:10:00 PM 34.5573 -81.7155 291° West  Level FlightAware Approximate
Sun 02:11:00 PM 34.5726 -81.7635 291° West  Level FlightAware Approximate
Sun 02:12:00 PM 34.5878 -81.8115 291° West  Level FlightAware Approximate
Sun 02:13:00 PM 34.6020 -81.8599 284° West  Level FlightAware Approximate
Sun 02:14:00 PM 34.6120 -81.9100 284° West  Level FlightAware Approximate
Sun 02:15:00 PM 34.6252 -81.9587 292° West  Level FlightAware Approximate
Sun 02:16:00 PM 34.6411 -82.0065 292° West  Level FlightAware Approximate
Sun 02:17:00 PM 34.6570 -82.0542 292° West  Level FlightAware Approximate
Sun 02:18:00 PM 34.6718 -82.1024 288° West  Level FlightAware Approximate

Login

Don't have an account? Register now (free) for customized features, flight alerts, and more!